sensor_id;sensor_type;location;lat;lon;timestamp;P1;durP1;ratioP1;P2;durP2;ratioP2
34711;SDS011;20941;42.408;25.634;2024-01-07T00:01:00;21.40;;;9.07;;
34711;SDS011;20941;42.408;25.634;2024-01-07T00:03:26;17.10;;;9.32;;
34711;SDS011;20941;42.408;25.634;2024-01-07T00:05:51;19.15;;;8.73;;
34711;SDS011;20941;42.408;25.634;2024-01-07T00:08:16;15.32;;;8.98;;
34711;SDS011;20941;42.408;25.634;2024-01-07T00:10:42;20.45;;;9.38;;
34711;SDS011;20941;42.408;25.634;2024-01-07T00:13:07;18.52;;;9.55;;
34711;SDS011;20941;42.408;25.634;2024-01-07T00:15:33;23.02;;;10.10;;
34711;SDS011;20941;42.408;25.634;2024-01-07T00:17:58;15.55;;;9.20;;
34711;SDS011;20941;42.408;25.634;2024-01-07T00:20:24;11.38;;;5.25;;
34711;SDS011;20941;42.408;25.634;2024-01-07T00:22:49;27.80;;;11.95;;
34711;SDS011;20941;42.408;25.634;2024-01-07T00:25:14;21.13;;;13.15;;
34711;SDS011;20941;42.408;25.634;2024-01-07T00:27:40;23.88;;;10.48;;
34711;SDS011;20941;42.408;25.634;2024-01-07T00:30:05;21.60;;;10.40;;
34711;SDS011;20941;42.408;25.634;2024-01-07T00:32:31;17.95;;;10.23;;
34711;SDS011;20941;42.408;25.634;2024-01-07T00:34:56;20.42;;;10.48;;
34711;SDS011;20941;42.408;25.634;2024-01-07T00:37:22;31.80;;;12.68;;
34711;SDS011;20941;42.408;25.634;2024-01-07T00:39:47;23.80;;;12.02;;
34711;SDS011;20941;42.408;25.634;2024-01-07T00:42:13;29.38;;;11.77;;
34711;SDS011;20941;42.408;25.634;2024-01-07T00:44:38;25.52;;;11.10;;
34711;SDS011;20941;42.408;25.634;2024-01-07T00:47:03;24.15;;;10.73;;
34711;SDS011;20941;42.408;25.634;2024-01-07T00:49:29;24.77;;;10.55;;
34711;SDS011;20941;42.408;25.634;2024-01-07T00:51:55;19.15;;;10.27;;
34711;SDS011;20941;42.408;25.634;2024-01-07T00:54:21;18.02;;;10.45;;
34711;SDS011;20941;42.408;25.634;2024-01-07T00:56:46;15.63;;;10.38;;
34711;SDS011;20941;42.408;25.634;2024-01-07T00:59:11;19.90;;;10.55;;
34711;SDS011;20941;42.408;25.634;2024-01-07T01:01:37;23.48;;;10.73;;
34711;SDS011;20941;42.408;25.634;2024-01-07T01:04:02;23.52;;;10.93;;
34711;SDS011;20941;42.408;25.634;2024-01-07T01:06:28;19.92;;;11.20;;
34711;SDS011;20941;42.408;25.634;2024-01-07T01:08:54;22.75;;;10.85;;
34711;SDS011;20941;42.408;25.634;2024-01-07T01:11:20;21.25;;;11.05;;
34711;SDS011;20941;42.408;25.634;2024-01-07T01:13:45;19.83;;;9.55;;
34711;SDS011;20941;42.408;25.634;2024-01-07T01:16:11;22.38;;;10.93;;
34711;SDS011;20941;42.408;25.634;2024-01-07T01:18:36;25.27;;;10.77;;
34711;SDS011;20941;42.408;25.634;2024-01-07T01:21:01;23.15;;;11.57;;
34711;SDS011;20941;42.408;25.634;2024-01-07T01:23:27;22.17;;;10.88;;
34711;SDS011;20941;42.408;25.634;2024-01-07T01:25:52;25.65;;;11.52;;
34711;SDS011;20941;42.408;25.634;2024-01-07T01:28:17;24.17;;;11.35;;
34711;SDS011;20941;42.408;25.634;2024-01-07T01:30:43;24.58;;;11.65;;
34711;SDS011;20941;42.408;25.634;2024-01-07T01:33:08;20.42;;;12.43;;
34711;SDS011;20941;42.408;25.634;2024-01-07T01:35:34;23.95;;;11.98;;
34711;SDS011;20941;42.408;25.634;2024-01-07T01:37:59;23.30;;;11.45;;
34711;SDS011;20941;42.408;25.634;2024-01-07T01:40:24;24.60;;;11.55;;
34711;SDS011;20941;42.408;25.634;2024-01-07T01:42:50;25.52;;;11.93;;
34711;SDS011;20941;42.408;25.634;2024-01-07T01:45:15;27.30;;;12.52;;
34711;SDS011;20941;42.408;25.634;2024-01-07T01:47:41;23.55;;;12.88;;
34711;SDS011;20941;42.408;25.634;2024-01-07T01:50:07;27.38;;;11.85;;
34711;SDS011;20941;42.408;25.634;2024-01-07T01:52:33;24.02;;;13.10;;
34711;SDS011;20941;42.408;25.634;2024-01-07T01:54:59;20.83;;;12.02;;
34711;SDS011;20941;42.408;25.634;2024-01-07T01:57:25;23.55;;;12.25;;
34711;SDS011;20941;42.408;25.634;2024-01-07T01:59:54;19.60;;;11.27;;
34711;SDS011;20941;42.408;25.634;2024-01-07T02:02:19;29.63;;;12.38;;
34711;SDS011;20941;42.408;25.634;2024-01-07T02:04:45;24.75;;;12.13;;
34711;SDS011;20941;42.408;25.634;2024-01-07T02:07:10;25.58;;;12.32;;
34711;SDS011;20941;42.408;25.634;2024-01-07T02:09:36;23.23;;;13.70;;
34711;SDS011;20941;42.408;25.634;2024-01-07T02:12:04;27.50;;;12.70;;
34711;SDS011;20941;42.408;25.634;2024-01-07T02:14:30;25.65;;;12.30;;
34711;SDS011;20941;42.408;25.634;2024-01-07T02:16:55;32.00;;;13.20;;
34711;SDS011;20941;42.408;25.634;2024-01-07T02:19:21;30.30;;;14.45;;
34711;SDS011;20941;42.408;25.634;2024-01-07T02:21:47;27.02;;;12.88;;
34711;SDS011;20941;42.408;25.634;2024-01-07T02:24:18;29.25;;;13.27;;
34711;SDS011;20941;42.408;25.634;2024-01-07T02:26:43;27.98;;;13.88;;
34711;SDS011;20941;42.408;25.634;2024-01-07T02:29:09;27.42;;;13.10;;
34711;SDS011;20941;42.408;25.634;2024-01-07T02:31:34;25.70;;;13.40;;
34711;SDS011;20941;42.408;25.634;2024-01-07T02:34:00;25.52;;;12.98;;
34711;SDS011;20941;42.408;25.634;2024-01-07T02:36:25;26.55;;;12.50;;
34711;SDS011;20941;42.408;25.634;2024-01-07T02:38:51;26.63;;;13.23;;
34711;SDS011;20941;42.408;25.634;2024-01-07T02:41:16;31.15;;;13.48;;
34711;SDS011;20941;42.408;25.634;2024-01-07T02:43:41;28.48;;;13.77;;
34711;SDS011;20941;42.408;25.634;2024-01-07T02:46:07;27.58;;;12.55;;
34711;SDS011;20941;42.408;25.634;2024-01-07T02:48:32;22.73;;;12.55;;
34711;SDS011;20941;42.408;25.634;2024-01-07T02:50:58;25.70;;;14.10;;
34711;SDS011;20941;42.408;25.634;2024-01-07T02:53:23;33.67;;;15.75;;
34711;SDS011;20941;42.408;25.634;2024-01-07T02:55:48;30.42;;;15.43;;
34711;SDS011;20941;42.408;25.634;2024-01-07T02:58:14;26.60;;;13.63;;
34711;SDS011;20941;42.408;25.634;2024-01-07T03:00:39;24.13;;;13.48;;
34711;SDS011;20941;42.408;25.634;2024-01-07T03:03:05;28.25;;;13.55;;
34711;SDS011;20941;42.408;25.634;2024-01-07T03:05:30;30.55;;;14.20;;
34711;SDS011;20941;42.408;25.634;2024-01-07T03:07:58;29.30;;;14.38;;
34711;SDS011;20941;42.408;25.634;2024-01-07T03:10:23;34.88;;;14.73;;
34711;SDS011;20941;42.408;25.634;2024-01-07T03:12:49;29.38;;;15.48;;
34711;SDS011;20941;42.408;25.634;2024-01-07T03:15:15;29.38;;;14.15;;
34711;SDS011;20941;42.408;25.634;2024-01-07T03:17:40;28.35;;;13.82;;
34711;SDS011;20941;42.408;25.634;2024-01-07T03:20:06;24.45;;;12.40;;
34711;SDS011;20941;42.408;25.634;2024-01-07T03:22:31;27.52;;;13.43;;
34711;SDS011;20941;42.408;25.634;2024-01-07T03:24:57;26.15;;;12.55;;
34711;SDS011;20941;42.408;25.634;2024-01-07T03:27:22;27.35;;;13.75;;
34711;SDS011;20941;42.408;25.634;2024-01-07T03:29:47;26.75;;;13.65;;
34711;SDS011;20941;42.408;25.634;2024-01-07T03:32:13;25.90;;;13.73;;
34711;SDS011;20941;42.408;25.634;2024-01-07T03:34:38;29.83;;;13.60;;
34711;SDS011;20941;42.408;25.634;2024-01-07T03:37:05;31.08;;;13.80;;
34711;SDS011;20941;42.408;25.634;2024-01-07T03:39:32;29.52;;;13.43;;
34711;SDS011;20941;42.408;25.634;2024-01-07T03:41:57;22.02;;;11.52;;
34711;SDS011;20941;42.408;25.634;2024-01-07T03:44:22;24.95;;;11.65;;
34711;SDS011;20941;42.408;25.634;2024-01-07T03:46:48;26.92;;;10.88;;
34711;SDS011;20941;42.408;25.634;2024-01-07T03:49:14;20.42;;;11.80;;
34711;SDS011;20941;42.408;25.634;2024-01-07T03:51:39;22.35;;;11.82;;
34711;SDS011;20941;42.408;25.634;2024-01-07T03:54:05;24.40;;;11.95;;
34711;SDS011;20941;42.408;25.634;2024-01-07T03:56:30;26.98;;;12.38;;
34711;SDS011;20941;42.408;25.634;2024-01-07T03:58:56;26.27;;;12.68;;
34711;SDS011;20941;42.408;25.634;2024-01-07T04:01:21;30.52;;;12.65;;
34711;SDS011;20941;42.408;25.634;2024-01-07T04:03:47;21.45;;;11.18;;
34711;SDS011;20941;42.408;25.634;2024-01-07T04:06:12;25.67;;;12.77;;
34711;SDS011;20941;42.408;25.634;2024-01-07T04:08:37;26.63;;;13.57;;
34711;SDS011;20941;42.408;25.634;2024-01-07T04:11:03;31.08;;;13.65;;
34711;SDS011;20941;42.408;25.634;2024-01-07T04:13:28;28.88;;;13.52;;
34711;SDS011;20941;42.408;25.634;2024-01-07T04:15:53;27.05;;;13.50;;
34711;SDS011;20941;42.408;25.634;2024-01-07T04:18:19;25.40;;;12.98;;
34711;SDS011;20941;42.408;25.634;2024-01-07T04:20:47;25.40;;;14.02;;
34711;SDS011;20941;42.408;25.634;2024-01-07T04:23:13;24.40;;;13.50;;
34711;SDS011;20941;42.408;25.634;2024-01-07T04:25:38;20.30;;;10.90;;
34711;SDS011;20941;42.408;25.634;2024-01-07T04:28:06;17.75;;;10.52;;
34711;SDS011;20941;42.408;25.634;2024-01-07T04:30:31;20.15;;;10.18;;
34711;SDS011;20941;42.408;25.634;2024-01-07T04:32:56;24.00;;;10.73;;
34711;SDS011;20941;42.408;25.634;2024-01-07T04:35:22;22.85;;;10.18;;
34711;SDS011;20941;42.408;25.634;2024-01-07T04:37:47;16.30;;;8.10;;
34711;SDS011;20941;42.408;25.634;2024-01-07T04:40:12;15.52;;;7.13;;
34711;SDS011;20941;42.408;25.634;2024-01-07T04:42:38;18.73;;;7.82;;
34711;SDS011;20941;42.408;25.634;2024-01-07T04:45:03;12.20;;;5.03;;
34711;SDS011;20941;42.408;25.634;2024-01-07T04:47:30;11.45;;;4.82;;
34711;SDS011;20941;42.408;25.634;2024-01-07T04:49:55;14.38;;;4.10;;
34711;SDS011;20941;42.408;25.634;2024-01-07T04:52:22;10.20;;;4.20;;
34711;SDS011;20941;42.408;25.634;2024-01-07T04:54:47;9.00;;;3.80;;
34711;SDS011;20941;42.408;25.634;2024-01-07T04:57:13;9.68;;;3.75;;
34711;SDS011;20941;42.408;25.634;2024-01-07T04:59:38;9.20;;;3.55;;
34711;SDS011;20941;42.408;25.634;2024-01-07T05:02:03;5.55;;;2.80;;
34711;SDS011;20941;42.408;25.634;2024-01-07T05:04:29;4.95;;;2.10;;
34711;SDS011;20941;42.408;25.634;2024-01-07T05:06:54;5.32;;;2.05;;
34711;SDS011;20941;42.408;25.634;2024-01-07T05:09:19;1.30;;;1.00;;
34711;SDS011;20941;42.408;25.634;2024-01-07T05:11:45;1.75;;;1.02;;
34711;SDS011;20941;42.408;25.634;2024-01-07T05:14:11;1.65;;;0.90;;
34711;SDS011;20941;42.408;25.634;2024-01-07T05:16:36;0.90;;;0.60;;
34711;SDS011;20941;42.408;25.634;2024-01-07T05:19:01;3.83;;;0.65;;
34711;SDS011;20941;42.408;25.634;2024-01-07T05:21:27;0.82;;;0.40;;
34711;SDS011;20941;42.408;25.634;2024-01-07T05:23:52;0.95;;;0.57;;
34711;SDS011;20941;42.408;25.634;2024-01-07T05:26:18;2.30;;;0.85;;
34711;SDS011;20941;42.408;25.634;2024-01-07T05:28:43;1.92;;;1.20;;
34711;SDS011;20941;42.408;25.634;2024-01-07T05:31:15;2.85;;;1.30;;
34711;SDS011;20941;42.408;25.634;2024-01-07T05:33:41;1.30;;;0.90;;
34711;SDS011;20941;42.408;25.634;2024-01-07T05:36:06;1.33;;;0.52;;
34711;SDS011;20941;42.408;25.634;2024-01-07T05:38:32;1.73;;;0.35;;
34711;SDS011;20941;42.408;25.634;2024-01-07T05:40:57;0.68;;;0.68;;
34711;SDS011;20941;42.408;25.634;2024-01-07T05:43:23;1.55;;;0.80;;
34711;SDS011;20941;42.408;25.634;2024-01-07T05:45:48;3.95;;;0.60;;
34711;SDS011;20941;42.408;25.634;2024-01-07T05:48:13;1.58;;;0.65;;
34711;SDS011;20941;42.408;25.634;2024-01-07T05:50:39;0.57;;;0.50;;
34711;SDS011;20941;42.408;25.634;2024-01-07T05:53:04;1.13;;;0.50;;
34711;SDS011;20941;42.408;25.634;2024-01-07T05:55:29;2.10;;;0.50;;
34711;SDS011;20941;42.408;25.634;2024-01-07T05:57:56;1.00;;;0.50;;
34711;SDS011;20941;42.408;25.634;2024-01-07T06:00:21;0.70;;;0.70;;
34711;SDS011;20941;42.408;25.634;2024-01-07T06:02:46;2.22;;;0.90;;
34711;SDS011;20941;42.408;25.634;2024-01-07T06:05:12;1.25;;;0.60;;
34711;SDS011;20941;42.408;25.634;2024-01-07T06:07:37;1.98;;;0.40;;
34711;SDS011;20941;42.408;25.634;2024-01-07T06:10:03;0.52;;;0.40;;
34711;SDS011;20941;42.408;25.634;2024-01-07T06:12:28;1.98;;;0.50;;
34711;SDS011;20941;42.408;25.634;2024-01-07T06:14:54;1.85;;;0.93;;
34711;SDS011;20941;42.408;25.634;2024-01-07T06:17:19;1.58;;;0.93;;
34711;SDS011;20941;42.408;25.634;2024-01-07T06:19:45;1.85;;;0.60;;
34711;SDS011;20941;42.408;25.634;2024-01-07T06:22:10;2.08;;;0.40;;
34711;SDS011;20941;42.408;25.634;2024-01-07T06:24:35;2.42;;;1.15;;
34711;SDS011;20941;42.408;25.634;2024-01-07T06:27:01;1.95;;;0.75;;
34711;SDS011;20941;42.408;25.634;2024-01-07T06:29:29;3.58;;;1.33;;
34711;SDS011;20941;42.408;25.634;2024-01-07T06:31:54;6.05;;;1.42;;
34711;SDS011;20941;42.408;25.634;2024-01-07T06:34:20;1.85;;;1.10;;
34711;SDS011;20941;42.408;25.634;2024-01-07T06:36:46;3.03;;;1.33;;
34711;SDS011;20941;42.408;25.634;2024-01-07T06:39:11;1.20;;;0.85;;
34711;SDS011;20941;42.408;25.634;2024-01-07T06:41:37;2.72;;;1.30;;
34711;SDS011;20941;42.408;25.634;2024-01-07T06:44:03;2.13;;;1.92;;
34711;SDS011;20941;42.408;25.634;2024-01-07T06:46:28;3.53;;;1.30;;
34711;SDS011;20941;42.408;25.634;2024-01-07T06:48:54;2.92;;;1.00;;
34711;SDS011;20941;42.408;25.634;2024-01-07T06:51:19;2.30;;;1.05;;
34711;SDS011;20941;42.408;25.634;2024-01-07T06:53:44;2.22;;;1.20;;
34711;SDS011;20941;42.408;25.634;2024-01-07T06:56:10;2.55;;;0.80;;
34711;SDS011;20941;42.408;25.634;2024-01-07T06:58:35;5.70;;;1.10;;
34711;SDS011;20941;42.408;25.634;2024-01-07T07:01:01;2.55;;;1.20;;
34711;SDS011;20941;42.408;25.634;2024-01-07T07:03:27;10.40;;;1.50;;
34711;SDS011;20941;42.408;25.634;2024-01-07T07:05:53;5.40;;;1.13;;
34711;SDS011;20941;42.408;25.634;2024-01-07T07:08:18;7.90;;;1.08;;
34711;SDS011;20941;42.408;25.634;2024-01-07T07:10:43;3.42;;;1.33;;
34711;SDS011;20941;42.408;25.634;2024-01-07T07:13:09;3.58;;;1.48;;
34711;SDS011;20941;42.408;25.634;2024-01-07T07:15:34;5.25;;;1.30;;
34711;SDS011;20941;42.408;25.634;2024-01-07T07:18:01;5.57;;;1.73;;
34711;SDS011;20941;42.408;25.634;2024-01-07T07:20:26;7.30;;;1.85;;
34711;SDS011;20941;42.408;25.634;2024-01-07T07:22:51;4.03;;;1.83;;
34711;SDS011;20941;42.408;25.634;2024-01-07T07:25:17;3.90;;;1.38;;
34711;SDS011;20941;42.408;25.634;2024-01-07T07:27:42;4.45;;;0.85;;
34711;SDS011;20941;42.408;25.634;2024-01-07T07:30:08;3.10;;;0.77;;
34711;SDS011;20941;42.408;25.634;2024-01-07T07:32:34;4.90;;;1.10;;
34711;SDS011;20941;42.408;25.634;2024-01-07T07:35:00;4.13;;;0.70;;
34711;SDS011;20941;42.408;25.634;2024-01-07T07:37:26;6.20;;;0.77;;
34711;SDS011;20941;42.408;25.634;2024-01-07T07:39:51;6.03;;;1.00;;
34711;SDS011;20941;42.408;25.634;2024-01-07T07:42:16;6.25;;;1.10;;
34711;SDS011;20941;42.408;25.634;2024-01-07T07:44:42;3.85;;;1.08;;
34711;SDS011;20941;42.408;25.634;2024-01-07T07:47:07;3.75;;;1.20;;
34711;SDS011;20941;42.408;25.634;2024-01-07T07:49:33;2.92;;;0.77;;
34711;SDS011;20941;42.408;25.634;2024-01-07T07:51:59;2.30;;;1.20;;
34711;SDS011;20941;42.408;25.634;2024-01-07T07:54:24;8.05;;;1.30;;
34711;SDS011;20941;42.408;25.634;2024-01-07T07:56:50;4.93;;;1.50;;
34711;SDS011;20941;42.408;25.634;2024-01-07T07:59:15;6.60;;;1.27;;
34711;SDS011;20941;42.408;25.634;2024-01-07T08:01:41;3.63;;;1.13;;
34711;SDS011;20941;42.408;25.634;2024-01-07T08:04:06;4.50;;;0.90;;
34711;SDS011;20941;42.408;25.634;2024-01-07T08:06:33;3.78;;;0.88;;
34711;SDS011;20941;42.408;25.634;2024-01-07T08:08:58;5.90;;;1.00;;
34711;SDS011;20941;42.408;25.634;2024-01-07T08:11:23;3.70;;;1.15;;
34711;SDS011;20941;42.408;25.634;2024-01-07T08:13:49;5.88;;;1.00;;
34711;SDS011;20941;42.408;25.634;2024-01-07T08:16:15;4.55;;;0.95;;
34711;SDS011;20941;42.408;25.634;2024-01-07T08:18:41;4.47;;;0.90;;
34711;SDS011;20941;42.408;25.634;2024-01-07T08:21:06;4.53;;;1.30;;
34711;SDS011;20941;42.408;25.634;2024-01-07T08:23:31;8.93;;;1.40;;
34711;SDS011;20941;42.408;25.634;2024-01-07T08:25:57;7.63;;;1.30;;
34711;SDS011;20941;42.408;25.634;2024-01-07T08:28:23;5.78;;;1.17;;
34711;SDS011;20941;42.408;25.634;2024-01-07T08:30:48;7.38;;;1.17;;
34711;SDS011;20941;42.408;25.634;2024-01-07T08:33:14;5.13;;;1.08;;
34711;SDS011;20941;42.408;25.634;2024-01-07T08:35:39;6.20;;;1.02;;
34711;SDS011;20941;42.408;25.634;2024-01-07T08:38:05;10.40;;;1.27;;
34711;SDS011;20941;42.408;25.634;2024-01-07T08:40:30;8.90;;;1.70;;
34711;SDS011;20941;42.408;25.634;2024-01-07T08:42:56;10.43;;;1.48;;
34711;SDS011;20941;42.408;25.634;2024-01-07T08:45:21;9.98;;;1.48;;
34711;SDS011;20941;42.408;25.634;2024-01-07T08:47:47;10.13;;;2.55;;
34711;SDS011;20941;42.408;25.634;2024-01-07T08:50:13;8.95;;;1.55;;
34711;SDS011;20941;42.408;25.634;2024-01-07T08:52:38;8.68;;;1.40;;
34711;SDS011;20941;42.408;25.634;2024-01-07T08:55:03;11.82;;;1.45;;
34711;SDS011;20941;42.408;25.634;2024-01-07T08:57:31;11.55;;;1.40;;
34711;SDS011;20941;42.408;25.634;2024-01-07T08:59:57;12.10;;;1.98;;
34711;SDS011;20941;42.408;25.634;2024-01-07T09:02:22;9.23;;;1.83;;
34711;SDS011;20941;42.408;25.634;2024-01-07T09:04:47;9.30;;;1.77;;
34711;SDS011;20941;42.408;25.634;2024-01-07T09:07:13;9.45;;;1.55;;
34711;SDS011;20941;42.408;25.634;2024-01-07T09:09:41;11.43;;;1.77;;
34711;SDS011;20941;42.408;25.634;2024-01-07T09:12:06;11.50;;;1.50;;
34711;SDS011;20941;42.408;25.634;2024-01-07T09:14:32;11.63;;;2.15;;
34711;SDS011;20941;42.408;25.634;2024-01-07T09:16:58;14.43;;;1.70;;
34711;SDS011;20941;42.408;25.634;2024-01-07T09:19:23;13.32;;;1.77;;
34711;SDS011;20941;42.408;25.634;2024-01-07T09:21:48;13.57;;;1.60;;
34711;SDS011;20941;42.408;25.634;2024-01-07T09:24:14;13.77;;;2.03;;
34711;SDS011;20941;42.408;25.634;2024-01-07T09:26:39;13.90;;;1.70;;
34711;SDS011;20941;42.408;25.634;2024-01-07T09:29:05;12.73;;;1.80;;
34711;SDS011;20941;42.408;25.634;2024-01-07T09:31:30;9.50;;;1.83;;
34711;SDS011;20941;42.408;25.634;2024-01-07T09:33:55;16.70;;;1.90;;
34711;SDS011;20941;42.408;25.634;2024-01-07T09:36:21;18.55;;;2.50;;
34711;SDS011;20941;42.408;25.634;2024-01-07T09:38:46;17.30;;;2.35;;
34711;SDS011;20941;42.408;25.634;2024-01-07T09:41:12;10.93;;;1.75;;
34711;SDS011;20941;42.408;25.634;2024-01-07T09:43:37;14.10;;;1.83;;
34711;SDS011;20941;42.408;25.634;2024-01-07T09:46:03;17.20;;;2.25;;
34711;SDS011;20941;42.408;25.634;2024-01-07T09:48:28;14.13;;;2.00;;
34711;SDS011;20941;42.408;25.634;2024-01-07T09:50:54;18.40;;;2.85;;
34711;SDS011;20941;42.408;25.634;2024-01-07T09:53:20;17.55;;;2.25;;
34711;SDS011;20941;42.408;25.634;2024-01-07T09:58:15;11.82;;;2.42;;
34711;SDS011;20941;42.408;25.634;2024-01-07T10:00:41;13.88;;;2.00;;
34711;SDS011;20941;42.408;25.634;2024-01-07T10:03:06;23.20;;;2.63;;
34711;SDS011;20941;42.408;25.634;2024-01-07T10:05:32;19.70;;;2.30;;
34711;SDS011;20941;42.408;25.634;2024-01-07T10:07:57;14.15;;;3.08;;
34711;SDS011;20941;42.408;25.634;2024-01-07T10:10:23;17.65;;;4.03;;
34711;SDS011;20941;42.408;25.634;2024-01-07T10:12:48;23.27;;;3.25;;
34711;SDS011;20941;42.408;25.634;2024-01-07T10:15:14;19.40;;;2.83;;
34711;SDS011;20941;42.408;25.634;2024-01-07T10:17:40;13.98;;;3.45;;
34711;SDS011;20941;42.408;25.634;2024-01-07T10:20:05;14.35;;;3.00;;
34711;SDS011;20941;42.408;25.634;2024-01-07T10:22:35;23.17;;;3.22;;
34711;SDS011;20941;42.408;25.634;2024-01-07T10:25:00;17.40;;;3.13;;
34711;SDS011;20941;42.408;25.634;2024-01-07T10:27:25;23.27;;;3.33;;
34711;SDS011;20941;42.408;25.634;2024-01-07T10:29:51;22.00;;;2.85;;
34711;SDS011;20941;42.408;25.634;2024-01-07T10:32:20;19.20;;;2.92;;
34711;SDS011;20941;42.408;25.634;2024-01-07T10:34:46;19.83;;;2.50;;
34711;SDS011;20941;42.408;25.634;2024-01-07T10:37:14;16.80;;;2.10;;
34711;SDS011;20941;42.408;25.634;2024-01-07T10:39:40;21.35;;;3.25;;
34711;SDS011;20941;42.408;25.634;2024-01-07T10:42:06;25.75;;;3.10;;
34711;SDS011;20941;42.408;25.634;2024-01-07T10:44:32;22.10;;;3.25;;
34711;SDS011;20941;42.408;25.634;2024-01-07T10:46:58;22.33;;;2.58;;
34711;SDS011;20941;42.408;25.634;2024-01-07T10:49:24;21.80;;;2.78;;
34711;SDS011;20941;42.408;25.634;2024-01-07T10:51:52;23.35;;;2.72;;
34711;SDS011;20941;42.408;25.634;2024-01-07T10:54:18;21.10;;;2.50;;
34711;SDS011;20941;42.408;25.634;2024-01-07T10:56:45;18.27;;;2.55;;
34711;SDS011;20941;42.408;25.634;2024-01-07T10:59:13;23.02;;;3.10;;
34711;SDS011;20941;42.408;25.634;2024-01-07T11:01:39;17.30;;;3.03;;
34711;SDS011;20941;42.408;25.634;2024-01-07T11:04:15;22.38;;;3.95;;
34711;SDS011;20941;42.408;25.634;2024-01-07T11:09:21;19.90;;;2.42;;
34711;SDS011;20941;42.408;25.634;2024-01-07T11:11:49;31.17;;;2.78;;
34711;SDS011;20941;42.408;25.634;2024-01-07T11:20:01;23.75;;;2.97;;
34711;SDS011;20941;42.408;25.634;2024-01-07T11:22:27;27.45;;;4.20;;
34711;SDS011;20941;42.408;25.634;2024-01-07T11:24:56;17.52;;;3.25;;
34711;SDS011;20941;42.408;25.634;2024-01-07T11:27:22;25.23;;;4.30;;
34711;SDS011;20941;42.408;25.634;2024-01-07T11:29:57;23.02;;;3.72;;
34711;SDS011;20941;42.408;25.634;2024-01-07T11:32:23;21.00;;;4.38;;
34711;SDS011;20941;42.408;25.634;2024-01-07T11:34:51;21.35;;;3.15;;
34711;SDS011;20941;42.408;25.634;2024-01-07T11:37:18;18.95;;;3.25;;
34711;SDS011;20941;42.408;25.634;2024-01-07T11:39:48;26.17;;;3.45;;
34711;SDS011;20941;42.408;25.634;2024-01-07T11:42:14;26.35;;;3.47;;
34711;SDS011;20941;42.408;25.634;2024-01-07T11:47:12;21.13;;;2.40;;
34711;SDS011;20941;42.408;25.634;2024-01-07T11:49:39;21.45;;;2.75;;
34711;SDS011;20941;42.408;25.634;2024-01-07T11:52:04;25.17;;;5.32;;
34711;SDS011;20941;42.408;25.634;2024-01-07T11:54:30;19.23;;;3.72;;
34711;SDS011;20941;42.408;25.634;2024-01-07T11:56:56;21.02;;;3.00;;
34711;SDS011;20941;42.408;25.634;2024-01-07T11:59:22;21.05;;;3.30;;
34711;SDS011;20941;42.408;25.634;2024-01-07T12:01:47;31.20;;;3.70;;
34711;SDS011;20941;42.408;25.634;2024-01-07T12:04:12;25.92;;;2.95;;
34711;SDS011;20941;42.408;25.634;2024-01-07T12:06:38;26.60;;;3.30;;
34711;SDS011;20941;42.408;25.634;2024-01-07T12:09:04;26.63;;;3.53;;
34711;SDS011;20941;42.408;25.634;2024-01-07T12:11:29;17.50;;;3.17;;
34711;SDS011;20941;42.408;25.634;2024-01-07T12:13:56;18.30;;;2.90;;
34711;SDS011;20941;42.408;25.634;2024-01-07T12:16:21;22.95;;;2.83;;
34711;SDS011;20941;42.408;25.634;2024-01-07T12:18:47;25.83;;;3.17;;
34711;SDS011;20941;42.408;25.634;2024-01-07T12:21:14;22.42;;;3.95;;
34711;SDS011;20941;42.408;25.634;2024-01-07T12:23:43;23.23;;;3.35;;
34711;SDS011;20941;42.408;25.634;2024-01-07T12:26:12;24.05;;;3.00;;
34711;SDS011;20941;42.408;25.634;2024-01-07T12:28:38;28.50;;;4.63;;
34711;SDS011;20941;42.408;25.634;2024-01-07T12:31:04;22.52;;;3.65;;
34711;SDS011;20941;42.408;25.634;2024-01-07T12:33:30;20.60;;;3.22;;
34711;SDS011;20941;42.408;25.634;2024-01-07T12:35:56;26.35;;;2.92;;
34711;SDS011;20941;42.408;25.634;2024-01-07T12:38:23;19.17;;;3.35;;
34711;SDS011;20941;42.408;25.634;2024-01-07T12:40:49;33.33;;;3.80;;
34711;SDS011;20941;42.408;25.634;2024-01-07T12:43:14;18.27;;;3.30;;
34711;SDS011;20941;42.408;25.634;2024-01-07T12:45:41;22.15;;;3.28;;
34711;SDS011;20941;42.408;25.634;2024-01-07T12:48:06;21.67;;;3.47;;
34711;SDS011;20941;42.408;25.634;2024-01-07T12:50:31;26.83;;;3.70;;
34711;SDS011;20941;42.408;25.634;2024-01-07T12:52:58;27.92;;;4.50;;
34711;SDS011;20941;42.408;25.634;2024-01-07T12:55:24;27.70;;;3.22;;
34711;SDS011;20941;42.408;25.634;2024-01-07T12:57:50;26.27;;;3.30;;
34711;SDS011;20941;42.408;25.634;2024-01-07T13:00:15;21.38;;;3.65;;
34711;SDS011;20941;42.408;25.634;2024-01-07T13:02:41;29.83;;;3.83;;
34711;SDS011;20941;42.408;25.634;2024-01-07T13:05:07;22.33;;;3.33;;
34711;SDS011;20941;42.408;25.634;2024-01-07T13:07:32;27.40;;;3.92;;
34711;SDS011;20941;42.408;25.634;2024-01-07T13:09:58;23.98;;;3.35;;
34711;SDS011;20941;42.408;25.634;2024-01-07T13:12:23;30.60;;;3.35;;
34711;SDS011;20941;42.408;25.634;2024-01-07T13:14:49;23.92;;;3.55;;
34711;SDS011;20941;42.408;25.634;2024-01-07T13:17:14;21.75;;;2.80;;
34711;SDS011;20941;42.408;25.634;2024-01-07T13:19:40;33.13;;;4.22;;
34711;SDS011;20941;42.408;25.634;2024-01-07T13:22:05;26.90;;;4.20;;
34711;SDS011;20941;42.408;25.634;2024-01-07T13:24:31;30.52;;;3.92;;
34711;SDS011;20941;42.408;25.634;2024-01-07T13:26:56;31.23;;;4.38;;
34711;SDS011;20941;42.408;25.634;2024-01-07T13:29:21;27.40;;;4.00;;
34711;SDS011;20941;42.408;25.634;2024-01-07T13:31:47;26.80;;;4.03;;
34711;SDS011;20941;42.408;25.634;2024-01-07T13:34:12;38.47;;;4.45;;
34711;SDS011;20941;42.408;25.634;2024-01-07T13:36:39;22.73;;;4.15;;
34711;SDS011;20941;42.408;25.634;2024-01-07T13:39:05;23.13;;;3.70;;
34711;SDS011;20941;42.408;25.634;2024-01-07T13:41:32;30.23;;;4.53;;
34711;SDS011;20941;42.408;25.634;2024-01-07T13:43:58;27.02;;;4.32;;
34711;SDS011;20941;42.408;25.634;2024-01-07T13:46:23;43.13;;;5.03;;
34711;SDS011;20941;42.408;25.634;2024-01-07T13:48:50;31.83;;;4.45;;
34711;SDS011;20941;42.408;25.634;2024-01-07T13:51:17;30.35;;;3.55;;
34711;SDS011;20941;42.408;25.634;2024-01-07T13:53:42;30.10;;;3.47;;
34711;SDS011;20941;42.408;25.634;2024-01-07T13:56:08;33.80;;;4.07;;
34711;SDS011;20941;42.408;25.634;2024-01-07T13:58:33;31.73;;;4.30;;
34711;SDS011;20941;42.408;25.634;2024-01-07T14:00:59;27.70;;;3.88;;
34711;SDS011;20941;42.408;25.634;2024-01-07T14:03:24;30.90;;;4.65;;
34711;SDS011;20941;42.408;25.634;2024-01-07T14:05:50;32.42;;;4.15;;
34711;SDS011;20941;42.408;25.634;2024-01-07T14:08:16;31.52;;;4.78;;
34711;SDS011;20941;42.408;25.634;2024-01-07T14:10:42;30.17;;;4.40;;
34711;SDS011;20941;42.408;25.634;2024-01-07T14:13:07;36.88;;;4.40;;
34711;SDS011;20941;42.408;25.634;2024-01-07T14:15:32;30.38;;;4.78;;
34711;SDS011;20941;42.408;25.634;2024-01-07T14:17:58;32.88;;;5.10;;
34711;SDS011;20941;42.408;25.634;2024-01-07T14:20:23;26.95;;;4.45;;
34711;SDS011;20941;42.408;25.634;2024-01-07T14:22:48;30.05;;;3.80;;
34711;SDS011;20941;42.408;25.634;2024-01-07T14:25:14;34.80;;;4.53;;